sensor_id;sensor_type;location;lat;lon;timestamp;pressure;altitude;pressure_sealevel;temperature
48854;BMP280;34673;52.808;17.856;2022-08-11T00:01:08;101409.91;;;18.81
48854;BMP280;34673;52.808;17.856;2022-08-11T00:03:41;101407.38;;;18.77
48854;BMP280;34673;52.808;17.856;2022-08-11T00:06:10;101407.50;;;18.71
48854;BMP280;34673;52.808;17.856;2022-08-11T00:08:40;101409.31;;;18.67
48854;BMP280;34673;52.808;17.856;2022-08-11T00:11:10;101405.06;;;18.63
48854;BMP280;34673;52.808;17.856;2022-08-11T00:13:40;101399.19;;;18.53
48854;BMP280;34673;52.808;17.856;2022-08-11T00:16:21;101399.25;;;18.50
48854;BMP280;34673;52.808;17.856;2022-08-11T00:18:53;101395.88;;;18.47
48854;BMP280;34673;52.808;17.856;2022-08-11T00:21:22;101399.34;;;18.47
48854;BMP280;34673;52.808;17.856;2022-08-11T00:24:10;101385.72;;;18.33
48854;BMP280;34673;52.808;17.856;2022-08-11T00:26:37;101406.69;;;18.33
48854;BMP280;34673;52.808;17.856;2022-08-11T00:29:11;101398.22;;;18.22
48854;BMP280;34673;52.808;17.856;2022-08-11T00:31:50;101402.69;;;18.16
48854;BMP280;34673;52.808;17.856;2022-08-11T00:34:21;101399.31;;;18.11
48854;BMP280;34673;52.808;17.856;2022-08-11T00:36:52;101394.97;;;18.10
48854;BMP280;34673;52.808;17.856;2022-08-11T00:39:21;101395.94;;;18.06
48854;BMP280;34673;52.808;17.856;2022-08-11T00:42:06;101399.47;;;18.04
48854;BMP280;34673;52.808;17.856;2022-08-11T00:44:51;101393.38;;;18.03
48854;BMP280;34673;52.808;17.856;2022-08-11T01:15:49;101399.19;;;17.76
48854;BMP280;34673;52.808;17.856;2022-08-11T01:21:46;101401.28;;;17.58
48854;BMP280;34673;52.808;17.856;2022-08-11T01:56:02;101380.75;;;17.40
48854;BMP280;34673;52.808;17.856;2022-08-11T02:18:54;101377.84;;;17.10
48854;BMP280;34673;52.808;17.856;2022-08-11T02:21:51;101375.94;;;17.18
48854;BMP280;34673;52.808;17.856;2022-08-11T02:25:05;101382.03;;;17.19
48854;BMP280;34673;52.808;17.856;2022-08-11T02:27:40;101386.47;;;17.12
48854;BMP280;34673;52.808;17.856;2022-08-11T02:30:15;101384.91;;;17.05
48854;BMP280;34673;52.808;17.856;2022-08-11T02:35:41;101386.00;;;16.90
48854;BMP280;34673;52.808;17.856;2022-08-11T02:38:21;101386.06;;;16.89
48854;BMP280;34673;52.808;17.856;2022-08-11T02:44:46;101393.97;;;16.86
48854;BMP280;34673;52.808;17.856;2022-08-11T02:53:33;101387.00;;;16.84
48854;BMP280;34673;52.808;17.856;2022-08-11T02:56:07;101404.19;;;16.98
48854;BMP280;34673;52.808;17.856;2022-08-11T02:58:59;101410.22;;;17.01
48854;BMP280;34673;52.808;17.856;2022-08-11T03:01:52;101421.56;;;16.99
48854;BMP280;34673;52.808;17.856;2022-08-11T03:04:48;101412.94;;;16.97
48854;BMP280;34673;52.808;17.856;2022-08-11T03:07:46;101399.19;;;16.86
48854;BMP280;34673;52.808;17.856;2022-08-11T03:10:24;101412.97;;;16.94
48854;BMP280;34673;52.808;17.856;2022-08-11T03:13:18;101412.16;;;16.90
48854;BMP280;34673;52.808;17.856;2022-08-11T03:16:23;101411.28;;;16.90
48854;BMP280;34673;52.808;17.856;2022-08-11T03:19:20;101407.84;;;16.88
48854;BMP280;34673;52.808;17.856;2022-08-11T03:22:02;101412.19;;;16.89
48854;BMP280;34673;52.808;17.856;2022-08-11T03:32:40;101395.69;;;16.87
48854;BMP280;34673;52.808;17.856;2022-08-11T03:35:36;101422.50;;;16.96
48854;BMP280;34673;52.808;17.856;2022-08-11T03:38:11;101421.69;;;16.93
48854;BMP280;34673;52.808;17.856;2022-08-11T03:44:19;101415.47;;;17.00
48854;BMP280;34673;52.808;17.856;2022-08-11T04:06:44;101411.03;;;17.05
48854;BMP280;34673;52.808;17.856;2022-08-11T04:12:17;101416.25;;;17.05
48854;BMP280;34673;52.808;17.856;2022-08-11T04:21:35;101421.31;;;17.14
48854;BMP280;34673;52.808;17.856;2022-08-11T04:27:52;101422.09;;;17.18
48854;BMP280;34673;52.808;17.856;2022-08-11T04:30:29;101415.97;;;17.20
48854;BMP280;34673;52.808;17.856;2022-08-11T05:13:08;101433.75;;;17.93
48854;BMP280;34673;52.808;17.856;2022-08-11T05:15:57;101433.59;;;17.99
48854;BMP280;34673;52.808;17.856;2022-08-11T05:18:51;101430.03;;;18.03
48854;BMP280;34673;52.808;17.856;2022-08-11T05:21:45;101428.25;;;18.05
48854;BMP280;34673;52.808;17.856;2022-08-11T05:24:40;101425.50;;;18.11
48854;BMP280;34673;52.808;17.856;2022-08-11T05:27:39;101426.81;;;18.29
48854;BMP280;34673;52.808;17.856;2022-08-11T05:30:27;101425.84;;;18.35
48854;BMP280;34673;52.808;17.856;2022-08-11T05:33:34;101425.63;;;18.44
48854;BMP280;34673;52.808;17.856;2022-08-11T05:36:26;101421.81;;;18.57
48854;BMP280;34673;52.808;17.856;2022-08-11T05:39:04;101426.91;;;18.64
48854;BMP280;34673;52.808;17.856;2022-08-11T05:42:04;101423.22;;;18.71
48854;BMP280;34673;52.808;17.856;2022-08-11T05:45:12;101423.03;;;18.80
48854;BMP280;34673;52.808;17.856;2022-08-11T05:48:20;101423.69;;;18.88
48854;BMP280;34673;52.808;17.856;2022-08-11T05:51:06;101426.09;;;18.97
48854;BMP280;34673;52.808;17.856;2022-08-11T05:53:58;101411.91;;;19.04
48854;BMP280;34673;52.808;17.856;2022-08-11T05:56:58;101415.84;;;19.21
48854;BMP280;34673;52.808;17.856;2022-08-11T05:59:27;101430.25;;;19.37
48854;BMP280;34673;52.808;17.856;2022-08-11T06:02:06;101429.94;;;19.49
48854;BMP280;34673;52.808;17.856;2022-08-11T06:04:34;101430.50;;;19.61
48854;BMP280;34673;52.808;17.856;2022-08-11T06:07:06;101431.06;;;19.72
48854;BMP280;34673;52.808;17.856;2022-08-11T06:09:48;101423.72;;;19.83
48854;BMP280;34673;52.808;17.856;2022-08-11T06:14:56;101421.19;;;20.10
48854;BMP280;34673;52.808;17.856;2022-08-11T06:17:29;101432.13;;;20.24
48854;BMP280;34673;52.808;17.856;2022-08-11T06:20:06;101424.63;;;20.40
48854;BMP280;34673;52.808;17.856;2022-08-11T06:22:38;101425.84;;;20.58
48854;BMP280;34673;52.808;17.856;2022-08-11T06:25:09;101427.88;;;20.76
48854;BMP280;34673;52.808;17.856;2022-08-11T06:27:37;101427.34;;;20.92
48854;BMP280;34673;52.808;17.856;2022-08-11T06:30:07;101412.81;;;21.07
48854;BMP280;34673;52.808;17.856;2022-08-11T06:32:44;101415.84;;;21.19
48854;BMP280;34673;52.808;17.856;2022-08-11T06:35:28;101425.75;;;21.38
48854;BMP280;34673;52.808;17.856;2022-08-11T06:38:14;101425.03;;;21.58
48854;BMP280;34673;52.808;17.856;2022-08-11T06:40:56;101422.56;;;21.77
48854;BMP280;34673;52.808;17.856;2022-08-11T06:46:42;101387.56;;;21.97
48854;BMP280;34673;52.808;17.856;2022-08-11T06:49:13;101414.25;;;22.33
48854;BMP280;34673;52.808;17.856;2022-08-11T06:52:01;101410.88;;;22.51
48854;BMP280;34673;52.808;17.856;2022-08-11T06:54:36;101415.28;;;22.73
48854;BMP280;34673;52.808;17.856;2022-08-11T06:57:11;101406.63;;;22.90
48854;BMP280;34673;52.808;17.856;2022-08-11T06:59:59;101415.72;;;23.05
48854;BMP280;34673;52.808;17.856;2022-08-11T07:02:56;101405.78;;;23.30
48854;BMP280;34673;52.808;17.856;2022-08-11T07:05:28;101411.94;;;23.50
48854;BMP280;34673;52.808;17.856;2022-08-11T07:14:11;101402.44;;;24.04
48854;BMP280;34673;52.808;17.856;2022-08-11T07:17:07;101396.25;;;24.22
48854;BMP280;34673;52.808;17.856;2022-08-11T07:19:38;101405.94;;;24.41
48854;BMP280;34673;52.808;17.856;2022-08-11T07:22:30;101392.91;;;24.55
48854;BMP280;34673;52.808;17.856;2022-08-11T07:25:17;101392.00;;;24.73
48854;BMP280;34673;52.808;17.856;2022-08-11T07:28:13;101399.75;;;24.94
48854;BMP280;34673;52.808;17.856;2022-08-11T07:31:07;101393.66;;;25.09
48854;BMP280;34673;52.808;17.856;2022-08-11T07:33:46;101391.00;;;25.27
48854;BMP280;34673;52.808;17.856;2022-08-11T07:36:41;101392.78;;;25.43
48854;BMP280;34673;52.808;17.856;2022-08-11T07:39:15;101385.78;;;25.58
48854;BMP280;34673;52.808;17.856;2022-08-11T07:44:26;101384.09;;;25.89
48854;BMP280;34673;52.808;17.856;2022-08-11T07:47:01;101388.56;;;26.04
48854;BMP280;34673;52.808;17.856;2022-08-11T07:49:49;101388.03;;;26.14
48854;BMP280;34673;52.808;17.856;2022-08-11T07:52:38;101382.81;;;26.28
48854;BMP280;34673;52.808;17.856;2022-08-11T07:55:14;101374.47;;;26.34
48854;BMP280;34673;52.808;17.856;2022-08-11T07:57:46;101378.91;;;26.49
48854;BMP280;34673;52.808;17.856;2022-08-11T08:00:51;101378.38;;;26.59
48854;BMP280;34673;52.808;17.856;2022-08-11T08:03:48;101379.00;;;26.78
48854;BMP280;34673;52.808;17.856;2022-08-11T08:06:35;101389.34;;;26.97
48854;BMP280;34673;52.808;17.856;2022-08-11T08:09:23;101392.03;;;27.11
48854;BMP280;34673;52.808;17.856;2022-08-11T08:12:09;101383.44;;;27.22
48854;BMP280;34673;52.808;17.856;2022-08-11T08:14:56;101384.56;;;27.32
48854;BMP280;34673;52.808;17.856;2022-08-11T08:17:43;101387.41;;;27.44
48854;BMP280;34673;52.808;17.856;2022-08-11T08:20:47;101388.53;;;27.54
48854;BMP280;34673;52.808;17.856;2022-08-11T08:23:22;101386.06;;;27.65
48854;BMP280;34673;52.808;17.856;2022-08-11T08:26:05;101381.88;;;27.75
48854;BMP280;34673;52.808;17.856;2022-08-11T08:28:59;101388.88;;;27.76
48854;BMP280;34673;52.808;17.856;2022-08-11T08:31:47;101375.03;;;27.71
48854;BMP280;34673;52.808;17.856;2022-08-11T08:34:15;101381.88;;;27.75
48854;BMP280;34673;52.808;17.856;2022-08-11T08:36:47;101379.59;;;27.83
48854;BMP280;34673;52.808;17.856;2022-08-11T08:39:20;101377.91;;;27.82
48854;BMP280;34673;52.808;17.856;2022-08-11T08:41:51;101377.91;;;27.82
48854;BMP280;34673;52.808;17.856;2022-08-11T08:44:21;101382.63;;;27.92
48854;BMP280;34673;52.808;17.856;2022-08-11T08:47:14;101380.53;;;27.97
48854;BMP280;34673;52.808;17.856;2022-08-11T08:50:06;101380.97;;;28.03
48854;BMP280;34673;52.808;17.856;2022-08-11T08:52:46;101374.22;;;28.12
48854;BMP280;34673;52.808;17.856;2022-08-11T08:55:18;101384.44;;;28.18
48854;BMP280;34673;52.808;17.856;2022-08-11T08:57:48;101373.78;;;28.18
48854;BMP280;34673;52.808;17.856;2022-08-11T09:00:17;101367.63;;;28.18
48854;BMP280;34673;52.808;17.856;2022-08-11T09:02:49;101378.50;;;28.27
48854;BMP280;34673;52.808;17.856;2022-08-11T09:05:18;101374.97;;;28.54
48854;BMP280;34673;52.808;17.856;2022-08-11T09:07:46;101374.28;;;28.78
48854;BMP280;34673;52.808;17.856;2022-08-11T09:10:18;101378.22;;;28.85
48854;BMP280;34673;52.808;17.856;2022-08-11T09:12:46;101374.16;;;28.92
48854;BMP280;34673;52.808;17.856;2022-08-11T09:15:15;101371.81;;;29.00
48854;BMP280;34673;52.808;17.856;2022-08-11T09:17:58;101375.69;;;29.09
48854;BMP280;34673;52.808;17.856;2022-08-11T09:20:33;101362.88;;;28.88
48854;BMP280;34673;52.808;17.856;2022-08-11T09:23:06;101370.66;;;28.39
48854;BMP280;34673;52.808;17.856;2022-08-11T09:26:12;101371.13;;;28.18
48854;BMP280;34673;52.808;17.856;2022-08-11T09:28:59;101368.19;;;28.50
48854;BMP280;34673;52.808;17.856;2022-08-11T09:31:31;101370.09;;;28.73
48854;BMP280;34673;52.808;17.856;2022-08-11T09:34:06;101367.25;;;28.37
48854;BMP280;34673;52.808;17.856;2022-08-11T09:36:34;101370.78;;;28.10
48854;BMP280;34673;52.808;17.856;2022-08-11T09:39:20;101364.03;;;27.77
48854;BMP280;34673;52.808;17.856;2022-08-11T09:42:08;101368.44;;;27.35
48854;BMP280;34673;52.808;17.856;2022-08-11T09:44:48;101362.16;;;26.93
48854;BMP280;34673;52.808;17.856;2022-08-11T09:47:27;101361.56;;;26.88
48854;BMP280;34673;52.808;17.856;2022-08-11T09:49:57;101365.19;;;27.02
48854;BMP280;34673;52.808;17.856;2022-08-11T09:52:29;101357.03;;;26.90
48854;BMP280;34673;52.808;17.856;2022-08-11T09:54:58;101354.50;;;26.73
48854;BMP280;34673;52.808;17.856;2022-08-11T09:57:25;101360.06;;;26.54
48854;BMP280;34673;52.808;17.856;2022-08-11T10:00:12;101348.72;;;26.36
48854;BMP280;34673;52.808;17.856;2022-08-11T10:02:46;101345.03;;;26.69
48854;BMP280;34673;52.808;17.856;2022-08-11T10:05:17;101336.75;;;27.32
48854;BMP280;34673;52.808;17.856;2022-08-11T10:08:04;101337.25;;;27.80
48854;BMP280;34673;52.808;17.856;2022-08-11T10:10:35;101331.03;;;28.21
48854;BMP280;34673;52.808;17.856;2022-08-11T10:13:09;101329.41;;;28.59
48854;BMP280;34673;52.808;17.856;2022-08-11T10:15:59;101327.69;;;28.96
48854;BMP280;34673;52.808;17.856;2022-08-11T10:18:46;101320.47;;;29.24
48854;BMP280;34673;52.808;17.856;2022-08-11T10:24:06;101308.03;;;29.48
48854;BMP280;34673;52.808;17.856;2022-08-11T10:26:53;101319.66;;;29.10
48854;BMP280;34673;52.808;17.856;2022-08-11T10:29:29;101315.88;;;29.00
48854;BMP280;34673;52.808;17.856;2022-08-11T10:32:22;101311.31;;;29.02
48854;BMP280;34673;52.808;17.856;2022-08-11T10:35:29;101313.56;;;29.08
48854;BMP280;34673;52.808;17.856;2022-08-11T10:37:59;101311.34;;;29.39
48854;BMP280;34673;52.808;17.856;2022-08-11T10:40:36;101301.59;;;29.64
48854;BMP280;34673;52.808;17.856;2022-08-11T10:43:05;101305.25;;;29.87
48854;BMP280;34673;52.808;17.856;2022-08-11T10:45:43;101312.72;;;30.06
48854;BMP280;34673;52.808;17.856;2022-08-11T10:48:37;101315.13;;;29.97
48854;BMP280;34673;52.808;17.856;2022-08-11T10:51:07;101297.19;;;29.99
48854;BMP280;34673;52.808;17.856;2022-08-11T10:54:01;101290.69;;;30.15
48854;BMP280;34673;52.808;17.856;2022-08-11T10:56:47;101291.00;;;30.34
48854;BMP280;34673;52.808;17.856;2022-08-11T10:59:33;101289.59;;;30.53
48854;BMP280;34673;52.808;17.856;2022-08-11T11:02:01;101284.41;;;30.62
48854;BMP280;34673;52.808;17.856;2022-08-11T11:07:19;101284.25;;;30.64
48854;BMP280;34673;52.808;17.856;2022-08-11T11:09:55;101280.88;;;30.73
48854;BMP280;34673;52.808;17.856;2022-08-11T11:12:27;101282.50;;;30.87
48854;BMP280;34673;52.808;17.856;2022-08-11T11:15:18;101279.22;;;31.06
48854;BMP280;34673;52.808;17.856;2022-08-11T11:18:10;101272.88;;;31.07
48854;BMP280;34673;52.808;17.856;2022-08-11T11:29:33;101269.97;;;31.10
48854;BMP280;34673;52.808;17.856;2022-08-11T11:35:03;101269.72;;;31.24
48854;BMP280;34673;52.808;17.856;2022-08-11T11:37:35;101258.28;;;31.22
48854;BMP280;34673;52.808;17.856;2022-08-11T11:40:15;101262.47;;;30.92
48854;BMP280;34673;52.808;17.856;2022-08-11T11:42:44;101266.47;;;30.29
48854;BMP280;34673;52.808;17.856;2022-08-11T11:45:20;101254.88;;;29.71
48854;BMP280;34673;52.808;17.856;2022-08-11T11:47:52;101262.50;;;29.14
48854;BMP280;34673;52.808;17.856;2022-08-11T11:50:28;101260.09;;;28.60
48854;BMP280;34673;52.808;17.856;2022-08-11T11:53:00;101256.56;;;28.47
48854;BMP280;34673;52.808;17.856;2022-08-11T11:55:30;101257.81;;;28.80
48854;BMP280;34673;52.808;17.856;2022-08-11T11:58:02;101246.28;;;29.17
48854;BMP280;34673;52.808;17.856;2022-08-11T12:00:50;101247.34;;;29.52
48854;BMP280;34673;52.808;17.856;2022-08-11T12:03:37;101239.31;;;29.65
48854;BMP280;34673;52.808;17.856;2022-08-11T12:06:07;101237.69;;;29.38
48854;BMP280;34673;52.808;17.856;2022-08-11T12:08:35;101240.13;;;29.04
48854;BMP280;34673;52.808;17.856;2022-08-11T12:11:05;101250.19;;;28.75
48854;BMP280;34673;52.808;17.856;2022-08-11T12:13:56;101243.53;;;28.29
48854;BMP280;34673;52.808;17.856;2022-08-11T12:16:24;101234.13;;;27.98
48854;BMP280;34673;52.808;17.856;2022-08-11T12:19:11;101237.00;;;27.68
48854;BMP280;34673;52.808;17.856;2022-08-11T12:21:39;101225.88;;;27.49
48854;BMP280;34673;52.808;17.856;2022-08-11T12:24:31;101222.34;;;27.75
48854;BMP280;34673;52.808;17.856;2022-08-11T12:27:18;101218.00;;;28.27
48854;BMP280;34673;52.808;17.856;2022-08-11T12:29:57;101210.16;;;28.51
48854;BMP280;34673;52.808;17.856;2022-08-11T12:32:30;101220.34;;;28.83
48854;BMP280;34673;52.808;17.856;2022-08-11T12:34:58;101224.56;;;29.11
48854;BMP280;34673;52.808;17.856;2022-08-11T12:37:29;101214.78;;;29.35
48854;BMP280;34673;52.808;17.856;2022-08-11T12:40:03;101209.13;;;29.40
48854;BMP280;34673;52.808;17.856;2022-08-11T12:43:14;101207.09;;;29.07
48854;BMP280;34673;52.808;17.856;2022-08-11T12:46:11;101200.75;;;28.71
48854;BMP280;34673;52.808;17.856;2022-08-11T12:48:46;101205.06;;;28.48
48854;BMP280;34673;52.808;17.856;2022-08-11T12:51:35;101199.69;;;28.22
48854;BMP280;34673;52.808;17.856;2022-08-11T12:57:15;101184.59;;;27.70
48854;BMP280;34673;52.808;17.856;2022-08-11T13:00:07;101172.88;;;28.00
48854;BMP280;34673;52.808;17.856;2022-08-11T13:02:54;101174.28;;;28.44
48854;BMP280;34673;52.808;17.856;2022-08-11T13:05:41;101173.06;;;28.73
48854;BMP280;34673;52.808;17.856;2022-08-11T13:08:11;101166.50;;;28.66
48854;BMP280;34673;52.808;17.856;2022-08-11T13:10:43;101167.13;;;28.44
48854;BMP280;34673;52.808;17.856;2022-08-11T13:13:31;101167.56;;;28.13
48854;BMP280;34673;52.808;17.856;2022-08-11T13:16:21;101164.13;;;27.85
48854;BMP280;34673;52.808;17.856;2022-08-11T13:18:48;101161.06;;;27.64
48854;BMP280;34673;52.808;17.856;2022-08-11T13:21:19;101165.03;;;27.44
48854;BMP280;34673;52.808;17.856;2022-08-11T13:23:49;101152.50;;;27.46
48854;BMP280;34673;52.808;17.856;2022-08-11T13:26:31;101150.03;;;27.70
48854;BMP280;34673;52.808;17.856;2022-08-11T13:29:20;101146.69;;;27.94
48854;BMP280;34673;52.808;17.856;2022-08-11T13:31:49;101149.03;;;28.11
48854;BMP280;34673;52.808;17.856;2022-08-11T13:34:18;101140.94;;;28.25
48854;BMP280;34673;52.808;17.856;2022-08-11T13:36:49;101128.16;;;28.31
48854;BMP280;34673;52.808;17.856;2022-08-11T13:39:22;101127.34;;;28.43
48854;BMP280;34673;52.808;17.856;2022-08-11T13:41:57;101127.88;;;28.48
48854;BMP280;34673;52.808;17.856;2022-08-11T13:44:27;101126.91;;;28.49
48854;BMP280;34673;52.808;17.856;2022-08-11T13:46:58;101133.94;;;28.50
48854;BMP280;34673;52.808;17.856;2022-08-11T13:49:29;101116.25;;;28.49
48854;BMP280;34673;52.808;17.856;2022-08-11T13:51:57;101118.16;;;28.47
48854;BMP280;34673;52.808;17.856;2022-08-11T13:54:29;101118.56;;;28.41
48854;BMP280;34673;52.808;17.856;2022-08-11T13:57:01;101124.03;;;28.26
48854;BMP280;34673;52.808;17.856;2022-08-11T13:59:34;101108.81;;;28.28
48854;BMP280;34673;52.808;17.856;2022-08-11T14:02:18;101110.94;;;28.23
48854;BMP280;34673;52.808;17.856;2022-08-11T14:05:00;101102.00;;;28.24
48854;BMP280;34673;52.808;17.856;2022-08-11T14:07:35;101101.69;;;28.29
48854;BMP280;34673;52.808;17.856;2022-08-11T14:10:06;101115.38;;;28.36
48854;BMP280;34673;52.808;17.856;2022-08-11T14:12:35;101103.50;;;28.28
48854;BMP280;34673;52.808;17.856;2022-08-11T14:15:22;101109.00;;;28.25
48854;BMP280;34673;52.808;17.856;2022-08-11T14:17:55;101100.31;;;28.23
48854;BMP280;34673;52.808;17.856;2022-08-11T14:20:23;101117.31;;;28.08
48854;BMP280;34673;52.808;17.856;2022-08-11T14:23:12;101119.88;;;27.84
48854;BMP280;34673;52.808;17.856;2022-08-11T14:25:41;101113.22;;;27.64
48854;BMP280;34673;52.808;17.856;2022-08-11T14:28:30;101111.03;;;27.44
48854;BMP280;34673;52.808;17.856;2022-08-11T14:31:10;101106.97;;;27.25
48854;BMP280;34673;52.808;17.856;2022-08-11T14:33:39;101107.53;;;27.16
48854;BMP280;34673;52.808;17.856;2022-08-11T14:36:30;101111.38;;;27.12
48854;BMP280;34673;52.808;17.856;2022-08-11T14:39:01;101105.69;;;27.18
48854;BMP280;34673;52.808;17.856;2022-08-11T14:41:29;101099.34;;;27.33
48854;BMP280;34673;52.808;17.856;2022-08-11T14:44:36;101095.56;;;27.50
48854;BMP280;34673;52.808;17.856;2022-08-11T14:47:23;101098.56;;;27.58
48854;BMP280;34673;52.808;17.856;2022-08-11T14:49:55;101079.81;;;27.60
48854;BMP280;34673;52.808;17.856;2022-08-11T14:52:46;101096.81;;;27.45
48854;BMP280;34673;52.808;17.856;2022-08-11T14:55:16;101106.78;;;27.28
48854;BMP280;34673;52.808;17.856;2022-08-11T14:58:02;101106.44;;;27.06
48854;BMP280;34673;52.808;17.856;2022-08-11T15:00:32;101096.56;;;26.81
48854;BMP280;34673;52.808;17.856;2022-08-11T15:03:02;101098.41;;;26.66
48854;BMP280;34673;52.808;17.856;2022-08-11T15:05:47;101107.69;;;26.59
48854;BMP280;34673;52.808;17.856;2022-08-11T15:08:26;101096.75;;;26.49
48854;BMP280;34673;52.808;17.856;2022-08-11T15:11:15;101104.19;;;26.44
48854;BMP280;34673;52.808;17.856;2022-08-11T15:14:02;101089.47;;;26.38
48854;BMP280;34673;52.808;17.856;2022-08-11T15:16:31;101099.34;;;26.50
48854;BMP280;34673;52.808;17.856;2022-08-11T15:19:19;101094.72;;;26.54
48854;BMP280;34673;52.808;17.856;2022-08-11T15:21:48;101087.72;;;26.53
48854;BMP280;34673;52.808;17.856;2022-08-11T15:24:34;101079.66;;;26.55
48854;BMP280;34673;52.808;17.856;2022-08-11T15:27:04;101086.81;;;26.67
48854;BMP280;34673;52.808;17.856;2022-08-11T15:29:55;101083.13;;;26.69
48854;BMP280;34673;52.808;17.856;2022-08-11T15:32:59;101088.88;;;26.76
48854;BMP280;34673;52.808;17.856;2022-08-11T15:35:46;101084.75;;;26.72
48854;BMP280;34673;52.808;17.856;2022-08-11T15:38:33;101085.69;;;26.71
48854;BMP280;34673;52.808;17.856;2022-08-11T15:41:03;101094.19;;;26.76
48854;BMP280;34673;52.808;17.856;2022-08-11T15:43:53;101087.38;;;26.72
48854;BMP280;34673;52.808;17.856;2022-08-11T15:46:48;101087.78;;;26.66
48854;BMP280;34673;52.808;17.856;2022-08-11T15:49:36;101089.47;;;26.67
48854;BMP280;34673;52.808;17.856;2022-08-11T15:52:29;101090.25;;;26.69
48854;BMP280;34673;52.808;17.856;2022-08-11T15:54:58;101088.53;;;26.68
48854;BMP280;34673;52.808;17.856;2022-08-11T15:57:29;101091.53;;;26.76
48854;BMP280;34673;52.808;17.856;2022-08-11T16:00:16;101080.19;;;26.74
48854;BMP280;34673;52.808;17.856;2022-08-11T16:03:02;101084.34;;;26.78
48854;BMP280;34673;52.808;17.856;2022-08-11T16:05:49;101090.41;;;26.80
48854;BMP280;34673;52.808;17.856;2022-08-11T16:08:20;101091.88;;;26.84
48854;BMP280;34673;52.808;17.856;2022-08-11T16:11:00;101090.19;;;26.83
48854;BMP280;34673;52.808;17.856;2022-08-11T16:13:29;101083.56;;;26.76
48854;BMP280;34673;52.808;17.856;2022-08-11T16:16:02;101083.78;;;26.73
48854;BMP280;34673;52.808;17.856;2022-08-11T16:18:55;101084.38;;;26.64
48854;BMP280;34673;52.808;17.856;2022-08-11T16:21:32;101079.28;;;26.61
48854;BMP280;34673;52.808;17.856;2022-08-11T16:24:07;101086.88;;;26.52
48854;BMP280;34673;52.808;17.856;2022-08-11T16:26:56;101089.13;;;26.44
48854;BMP280;34673;52.808;17.856;2022-08-11T16:29:40;101069.50;;;26.33
48854;BMP280;34673;52.808;17.856;2022-08-11T16:32:12;101083.06;;;26.28
48854;BMP280;34673;52.808;17.856;2022-08-11T16:34:48;101093.69;;;26.28
48854;BMP280;34673;52.808;17.856;2022-08-11T16:37:35;101080.03;;;26.20
48854;BMP280;34673;52.808;17.856;2022-08-11T16:40:22;101073.22;;;26.16
48854;BMP280;34673;52.808;17.856;2022-08-11T16:42:51;101077.88;;;26.12
48854;BMP280;34673;52.808;17.856;2022-08-11T16:45:40;101072.75;;;26.09
48854;BMP280;34673;52.808;17.856;2022-08-11T16:48:31;101070.38;;;26.04
48854;BMP280;34673;52.808;17.856;2022-08-11T16:51:09;101061.66;;;26.02
48854;BMP280;34673;52.808;17.856;2022-08-11T16:53:37;101068.00;;;26.00
48854;BMP280;34673;52.808;17.856;2022-08-11T16:56:42;101072.63;;;25.96
48854;BMP280;34673;52.808;17.856;2022-08-11T16:59:21;101068.38;;;25.94
48854;BMP280;34673;52.808;17.856;2022-08-11T17:01:53;101066.78;;;25.91
48854;BMP280;34673;52.808;17.856;2022-08-11T17:04:30;101070.56;;;25.87
48854;BMP280;34673;52.808;17.856;2022-08-11T17:07:23;101072.59;;;25.82
48854;BMP280;34673;52.808;17.856;2022-08-11T17:10:22;101082.63;;;25.77
48854;BMP280;34673;52.808;17.856;2022-08-11T17:13:26;101075.78;;;25.73
48854;BMP280;34673;52.808;17.856;2022-08-11T17:16:00;101084.88;;;25.69
48854;BMP280;34673;52.808;17.856;2022-08-11T17:21:26;101074.81;;;25.59
48854;BMP280;34673;52.808;17.856;2022-08-11T17:24:05;101069.72;;;25.56
48854;BMP280;34673;52.808;17.856;2022-08-11T17:26:41;101078.78;;;25.52
48854;BMP280;34673;52.808;17.856;2022-08-11T17:29:40;101079.16;;;25.46
48854;BMP280;34673;52.808;17.856;2022-08-11T17:32:26;101079.50;;;25.40
48854;BMP280;34673;52.808;17.856;2022-08-11T17:35:35;101085.16;;;25.34
48854;BMP280;34673;52.808;17.856;2022-08-11T17:38:11;101080.06;;;25.31
48854;BMP280;34673;52.808;17.856;2022-08-11T17:40:42;101081.94;;;25.29
48854;BMP280;34673;52.808;17.856;2022-08-11T17:43:32;101069.13;;;25.21
48854;BMP280;34673;52.808;17.856;2022-08-11T17:46:19;101066.88;;;25.13
48854;BMP280;34673;52.808;17.856;2022-08-11T17:49:06;101075.97;;;25.09
48854;BMP280;34673;52.808;17.856;2022-08-11T17:51:35;101081.44;;;25.06
48854;BMP280;34673;52.808;17.856;2022-08-11T17:54:22;101073.75;;;25.02
48854;BMP280;34673;52.808;17.856;2022-08-11T17:57:09;101075.13;;;24.93
48854;BMP280;34673;52.808;17.856;2022-08-11T17:59:57;101078.88;;;24.89
48854;BMP280;34673;52.808;17.856;2022-08-11T18:02:30;101068.66;;;24.83
48854;BMP280;34673;52.808;17.856;2022-08-11T18:05:19;101071.72;;;24.75
48854;BMP280;34673;52.808;17.856;2022-08-11T18:07:49;101073.00;;;24.68
48854;BMP280;34673;52.808;17.856;2022-08-11T18:10:37;101071.75;;;24.59
48854;BMP280;34673;52.808;17.856;2022-08-11T18:13:26;101085.22;;;24.54
48854;BMP280;34673;52.808;17.856;2022-08-11T18:16:13;101082.97;;;24.47
48854;BMP280;34673;52.808;17.856;2022-08-11T18:18:59;101088.59;;;24.41
48854;BMP280;34673;52.808;17.856;2022-08-11T18:21:46;101089.00;;;24.33
48854;BMP280;34673;52.808;17.856;2022-08-11T18:24:52;101093.91;;;24.23
48854;BMP280;34673;52.808;17.856;2022-08-11T18:27:42;101090.81;;;24.15
48854;BMP280;34673;52.808;17.856;2022-08-11T18:30:32;101099.25;;;24.06
48854;BMP280;34673;52.808;17.856;2022-08-11T18:33:30;101107.03;;;23.92
48854;BMP280;34673;52.808;17.856;2022-08-11T18:36:53;101099.13;;;23.74
48854;BMP280;34673;52.808;17.856;2022-08-11T18:39:55;101098.31;;;23.55